Chatt, Tennessee
Current Conditions -  °F | °C
As of 2:53 AM on Sunday 21 Dec 2014 (Local Time) from KCHA Reporting Station
Overcast Overcast  
Wind Chill: 33°   Ceiling: 4000
Heat Index: 33°   Visibility: 8mi
Dew Point: 31°   Wind: 0mph
Humidity: 92%   Direction: NA
Pressure: 30.23"   Gusts: NA
Location:  35.0457°N, 85.3094°W
Report Text: KCHA 210753Z AUTO 00000KT 8SM OVC040 01/M01 A3023 RMK AO2 SLP240 T00061006
Loading
Personal Weather Stations






























Interactive Weather Map New forecast layout! Learn more

10-Day Weather Forecast

Advertisements
Track Severe Weather on mobile